createdAt,value
2018-05-15T00:02:05.131Z,48.80
2018-05-15T00:04:38.689Z,48.70
2018-05-15T00:07:12.237Z,48.30
2018-05-15T00:09:45.815Z,48.70
2018-05-15T00:12:19.506Z,48.80
2018-05-15T00:14:54.039Z,49.20
2018-05-15T00:17:28.055Z,49.20
2018-05-15T00:20:02.454Z,49.40
2018-05-15T00:22:36.279Z,49.40
2018-05-15T00:25:09.839Z,49.30
2018-05-15T00:27:43.688Z,49.60
2018-05-15T00:30:17.486Z,49.60
2018-05-15T00:32:51.184Z,49.50
2018-05-15T00:35:24.967Z,49.90
2018-05-15T00:37:58.699Z,50.30
2018-05-15T00:40:32.982Z,50.70
2018-05-15T00:43:06.923Z,50.40
2018-05-15T00:45:40.527Z,50.10
2018-05-15T00:48:14.831Z,49.90
2018-05-15T00:50:48.415Z,49.90
2018-05-15T00:53:22.144Z,49.90
2018-05-15T00:55:55.955Z,50.00
2018-05-15T00:58:29.763Z,49.70
2018-05-15T01:01:03.262Z,50.10
2018-05-15T01:03:36.965Z,50.00
2018-05-15T01:06:10.974Z,49.80
2018-05-15T01:08:44.482Z,49.80
2018-05-15T01:11:18.040Z,49.90
2018-05-15T01:13:51.696Z,49.90
2018-05-15T01:16:26.199Z,49.50
2018-05-15T01:18:59.902Z,49.40
2018-05-15T01:21:33.491Z,49.20
2018-05-15T01:24:07.003Z,49.50
2018-05-15T01:26:40.498Z,49.10
2018-05-15T01:29:14.204Z,48.90
2018-05-15T01:31:48.825Z,50.00
2018-05-15T01:34:22.530Z,49.40
2018-05-15T01:36:57.052Z,49.50
2018-05-15T01:39:30.851Z,48.90
2018-05-15T01:42:04.666Z,48.80
2018-05-15T01:44:38.462Z,48.80
2018-05-15T01:47:11.952Z,49.00
2018-05-15T01:49:45.550Z,49.50
2018-05-15T01:52:19.130Z,49.30
2018-05-15T01:54:52.871Z,49.50
2018-05-15T01:57:26.574Z,49.30
2018-05-15T02:00:00.276Z,50.00
2018-05-15T02:02:34.902Z,50.50
2018-05-15T02:05:08.702Z,50.50
2018-05-15T02:07:43.127Z,50.90
2018-05-15T02:10:16.938Z,50.60
2018-05-15T02:12:51.356Z,50.50
2018-05-15T02:15:24.950Z,50.50
2018-05-15T02:17:58.707Z,50.90
2018-05-15T02:20:32.359Z,50.50
2018-05-15T02:23:05.950Z,50.80
2018-05-15T02:25:40.450Z,51.20
2018-05-15T02:28:14.891Z,51.50
2018-05-15T02:30:48.611Z,51.40
2018-05-15T02:33:22.410Z,51.30
2018-05-15T02:35:56.116Z,51.60
2018-05-15T02:38:29.707Z,51.30
2018-05-15T02:41:03.420Z,51.60
2018-05-15T02:43:37.020Z,51.70
2018-05-15T02:46:11.306Z,51.60
2018-05-15T02:48:44.926Z,51.60
2018-05-15T02:51:18.505Z,51.80
2018-05-15T02:53:53.063Z,52.40
2018-05-15T02:56:26.723Z,52.30
2018-05-15T02:59:00.359Z,52.70
2018-05-15T03:01:34.072Z,52.90
2018-05-15T03:04:07.675Z,52.80
2018-05-15T03:06:42.271Z,53.20
2018-05-15T03:09:15.987Z,53.80
2018-05-15T03:11:49.572Z,53.20
2018-05-15T03:14:23.116Z,53.30
2018-05-15T03:16:56.663Z,53.30
2018-05-15T03:19:30.179Z,53.20
2018-05-15T03:22:03.855Z,53.70
2018-05-15T03:24:37.430Z,54.00
2018-05-15T03:27:11.302Z,54.30
2018-05-15T03:29:44.903Z,55.10
2018-05-15T03:32:18.651Z,56.00
2018-05-15T03:34:52.315Z,55.60
2018-05-15T03:37:26.803Z,56.00
2018-05-15T03:40:00.402Z,55.90
2018-05-15T03:42:34.006Z,56.50
2018-05-15T03:45:07.526Z,56.80
2018-05-15T03:47:41.202Z,56.60
2018-05-15T03:50:14.740Z,56.30
2018-05-15T03:52:49.154Z,56.60
2018-05-15T03:55:22.658Z,56.60
2018-05-15T03:57:56.351Z,56.60
2018-05-15T04:00:42.039Z,57.00
2018-05-15T04:03:27.728Z,56.90
2018-05-15T04:06:14.026Z,56.80
2018-05-15T04:08:48.318Z,56.60
2018-05-15T04:11:22.046Z,56.60
2018-05-15T04:13:55.747Z,57.10
2018-05-15T04:16:29.351Z,57.60
2018-05-15T04:19:02.996Z,57.60
2018-05-15T04:21:36.650Z,56.60
2018-05-15T04:24:10.322Z,55.40
2018-05-15T04:26:44.053Z,54.40
2018-05-15T04:29:17.663Z,54.50
2018-05-15T04:31:51.262Z,54.30
2018-05-15T04:34:24.872Z,53.70
2018-05-15T04:36:58.490Z,54.10
2018-05-15T04:39:32.131Z,54.00
2018-05-15T04:42:05.870Z,53.70
2018-05-15T04:44:39.672Z,53.90
2018-05-15T04:47:14.088Z,53.80
2018-05-15T04:49:47.714Z,53.70
2018-05-15T04:52:21.298Z,53.20
2018-05-15T04:54:55.795Z,53.80
2018-05-15T04:57:29.411Z,53.80
2018-05-15T05:00:03.114Z,53.60
2018-05-15T05:02:36.725Z,53.60
2018-05-15T05:05:10.522Z,54.10
2018-05-15T05:07:44.132Z,53.90
2018-05-15T05:10:17.829Z,53.80
2018-05-15T05:12:51.743Z,54.00
2018-05-15T05:15:25.554Z,53.90
2018-05-15T05:17:59.222Z,53.70
2018-05-15T05:20:32.863Z,54.00
2018-05-15T05:23:06.755Z,54.00
2018-05-15T05:25:41.702Z,53.50
2018-05-15T05:28:15.390Z,53.50
2018-05-15T05:30:48.933Z,54.00
2018-05-15T05:33:22.561Z,53.60
2018-05-15T05:35:56.018Z,53.40
2018-05-15T05:38:29.662Z,53.20
2018-05-15T05:41:03.317Z,53.40
2018-05-15T05:43:36.878Z,53.40
2018-05-15T05:46:10.583Z,52.90
2018-05-15T05:48:44.883Z,52.90
2018-05-15T05:51:18.622Z,52.80
2018-05-15T05:53:52.214Z,52.20
2018-05-15T05:56:26.035Z,52.20
2018-05-15T05:59:00.332Z,51.60
2018-05-15T06:01:33.931Z,51.60
2018-05-15T06:04:07.586Z,51.30
2018-05-15T06:06:41.102Z,51.90
2018-05-15T06:09:16.359Z,51.40
2018-05-15T06:11:50.066Z,51.40
2018-05-15T06:14:23.742Z,50.90
2018-05-15T06:16:58.209Z,51.00
2018-05-15T06:19:31.919Z,51.00
2018-05-15T06:22:05.515Z,51.00
2018-05-15T06:24:40.014Z,50.50
2018-05-15T06:27:13.742Z,50.50
2018-05-15T06:29:47.551Z,50.60
2018-05-15T06:32:21.216Z,50.30
2018-05-15T06:34:54.745Z,50.50
2018-05-15T06:37:29.170Z,50.00
2018-05-15T06:40:02.982Z,50.00
2018-05-15T06:42:37.606Z,50.50
2018-05-15T06:45:11.250Z,50.40
2018-05-15T06:47:44.896Z,49.60
2018-05-15T06:50:18.609Z,50.00
2018-05-15T06:52:53.123Z,50.50
2018-05-15T06:55:26.830Z,50.50
2018-05-15T06:58:00.434Z,49.90
2018-05-15T07:00:34.038Z,50.30
2018-05-15T07:03:07.659Z,50.40
2018-05-15T07:05:41.331Z,51.40
2018-05-15T07:08:15.044Z,50.20
2018-05-15T07:10:48.570Z,48.90
2018-05-15T07:13:22.130Z,49.70
2018-05-15T07:15:55.850Z,49.90
2018-05-15T07:18:29.660Z,49.70
2018-05-15T07:21:03.246Z,49.90
2018-05-15T07:23:37.059Z,50.10
2018-05-15T07:26:11.482Z,49.30
2018-05-15T07:28:45.000Z,49.20
2018-05-15T07:31:18.595Z,49.30
2018-05-15T07:33:53.003Z,48.70
2018-05-15T07:36:26.700Z,48.10
2018-05-15T07:39:00.502Z,47.40
2018-05-15T07:41:33.989Z,47.30
2018-05-15T07:44:07.504Z,48.00
2018-05-15T07:46:41.787Z,47.40
2018-05-15T07:49:15.413Z,47.40
2018-05-15T07:51:49.189Z,48.00
2018-05-15T07:54:22.816Z,48.00
2018-05-15T07:56:56.526Z,47.90
2018-05-15T07:59:30.049Z,46.70
2018-05-15T08:02:03.645Z,46.40
2018-05-15T08:04:37.414Z,46.50
2018-05-15T08:07:11.022Z,47.40
2018-05-15T08:09:44.738Z,47.40
2018-05-15T08:12:18.332Z,47.70
2018-05-15T08:14:52.764Z,45.60
2018-05-15T08:17:26.415Z,45.60
2018-05-15T08:20:00.172Z,46.40
2018-05-15T08:22:33.981Z,46.80
2018-05-15T08:25:07.692Z,46.50
2018-05-15T08:27:41.375Z,46.80
2018-05-15T08:30:15.668Z,45.90
2018-05-15T08:32:49.410Z,45.90
2018-05-15T08:35:23.694Z,45.10
2018-05-15T08:37:57.467Z,45.10
2018-05-15T08:40:31.223Z,46.10
2018-05-15T08:43:04.827Z,45.60
2018-05-15T08:45:38.599Z,45.00
2018-05-15T08:48:12.964Z,44.70
2018-05-15T08:50:46.482Z,44.70
2018-05-15T08:53:20.962Z,45.60
2018-05-15T08:55:55.359Z,42.90
2018-05-15T08:58:29.163Z,43.00
2018-05-15T09:01:02.906Z,45.40
2018-05-15T09:03:36.538Z,45.00
2018-05-15T09:06:10.790Z,44.60
2018-05-15T09:08:44.436Z,44.60
2018-05-15T09:11:18.118Z,43.60
2018-05-15T09:13:52.446Z,44.00
2018-05-15T09:16:25.966Z,44.00
2018-05-15T09:18:59.947Z,44.30
2018-05-15T09:21:34.371Z,42.60
2018-05-15T09:24:08.770Z,42.20
2018-05-15T09:26:42.424Z,42.20
2018-05-15T09:29:17.008Z,41.50
2018-05-15T09:31:50.439Z,41.50
2018-05-15T09:34:24.015Z,40.70
2018-05-15T09:36:57.819Z,40.40
2018-05-15T09:39:31.620Z,40.70
2018-05-15T09:42:05.165Z,40.00
2018-05-15T09:44:38.708Z,40.20
2018-05-15T09:47:13.107Z,35.80
2018-05-15T09:49:47.543Z,37.10
2018-05-15T09:52:21.265Z,37.40
2018-05-15T09:54:55.570Z,38.40
2018-05-15T09:57:29.295Z,38.40
2018-05-15T10:00:03.091Z,37.00
2018-05-15T10:02:37.385Z,35.80
2018-05-15T10:05:11.110Z,35.60
2018-05-15T10:07:44.994Z,35.00
2018-05-15T10:10:18.430Z,35.40
2018-05-15T10:12:52.123Z,36.40
2018-05-15T10:15:25.767Z,35.20
2018-05-15T10:17:59.265Z,35.60
2018-05-15T10:20:33.950Z,32.30
2018-05-15T10:23:07.754Z,32.30
2018-05-15T10:25:41.486Z,32.20
2018-05-15T10:28:15.367Z,34.00
2018-05-15T10:30:49.175Z,32.20
2018-05-15T10:33:23.047Z,31.90
2018-05-15T10:35:56.602Z,33.20
2018-05-15T10:38:30.382Z,33.20
2018-05-15T10:41:03.918Z,32.90
2018-05-15T10:43:37.605Z,32.10
2018-05-15T10:46:12.003Z,31.50
2018-05-15T10:48:45.670Z,31.50
2018-05-15T10:51:19.294Z,31.20
2018-05-15T10:53:53.014Z,29.80
2018-05-15T10:56:26.819Z,30.10
2018-05-15T10:59:00.534Z,30.40
2018-05-15T11:01:34.197Z,30.00
2018-05-15T11:04:07.823Z,30.20
2018-05-15T11:06:41.444Z,30.40
2018-05-15T11:09:16.038Z,29.40
2018-05-15T11:11:49.611Z,29.80
2018-05-15T11:14:23.450Z,29.20
2018-05-15T11:16:57.073Z,29.40
2018-05-15T11:19:42.710Z,30.00
2018-05-15T11:22:28.215Z,28.90
2018-05-15T11:25:01.752Z,29.00
2018-05-15T11:27:35.434Z,29.40
2018-05-15T11:30:09.222Z,28.70
2018-05-15T11:32:42.719Z,29.10
2018-05-15T11:35:16.631Z,28.80
2018-05-15T11:37:50.322Z,29.00
2018-05-15T11:40:24.063Z,29.10
2018-05-15T11:42:57.651Z,29.60
2018-05-15T11:45:31.259Z,30.20
2018-05-15T11:48:05.883Z,30.40
2018-05-15T11:50:39.983Z,30.40
2018-05-15T11:53:13.476Z,29.40
2018-05-15T11:55:47.183Z,30.10
2018-05-15T11:58:20.892Z,30.00
2018-05-15T12:00:54.690Z,29.60
2018-05-15T12:03:28.290Z,30.80
2018-05-15T12:06:02.055Z,31.60
2018-05-15T12:08:35.698Z,32.40
2018-05-15T12:11:09.386Z,33.50
2018-05-15T12:13:43.799Z,34.10
2018-05-15T12:16:17.318Z,34.10
2018-05-15T12:18:51.729Z,33.30
2018-05-15T12:21:25.411Z,33.20
2018-05-15T12:23:59.848Z,34.30
2018-05-15T12:26:33.414Z,34.30
2018-05-15T12:29:07.982Z,34.00
2018-05-15T12:31:41.590Z,34.40
2018-05-15T12:34:15.138Z,34.20
2018-05-15T12:36:49.490Z,34.50
2018-05-15T12:39:23.895Z,34.30
2018-05-15T12:41:57.876Z,34.20
2018-05-15T12:44:31.336Z,35.20
2018-05-15T12:47:05.031Z,34.60
2018-05-15T12:49:38.634Z,34.00
2018-05-15T12:52:12.151Z,33.20
2018-05-15T12:54:46.048Z,33.60
2018-05-15T12:57:19.631Z,35.40
2018-05-15T12:59:53.240Z,32.70
2018-05-15T13:02:26.848Z,34.30
2018-05-15T13:05:00.658Z,33.10
2018-05-15T13:07:35.041Z,32.80
2018-05-15T13:10:08.671Z,32.80
2018-05-15T13:12:42.379Z,33.00
2018-05-15T13:15:15.943Z,32.80
2018-05-15T13:17:49.697Z,32.00
2018-05-15T13:20:23.367Z,30.80
2018-05-15T13:22:57.085Z,29.00
2018-05-15T13:25:31.710Z,29.50
2018-05-15T13:28:05.334Z,29.50
2018-05-15T13:30:38.935Z,29.50
2018-05-15T13:33:12.544Z,30.30
2018-05-15T13:35:46.306Z,30.10
2018-05-15T13:38:20.834Z,31.50
2018-05-15T13:40:54.539Z,31.50
2018-05-15T13:43:28.342Z,30.10
2018-05-15T13:46:01.953Z,30.00
2018-05-15T13:48:35.542Z,30.80
2018-05-15T13:51:09.229Z,31.00
2018-05-15T13:53:42.849Z,31.70
2018-05-15T13:56:16.544Z,30.10
2018-05-15T13:58:50.254Z,29.70
2018-05-15T14:01:23.784Z,30.50
2018-05-15T14:03:57.558Z,32.00
2018-05-15T14:06:31.224Z,30.60
2018-05-15T14:09:04.970Z,30.40
2018-05-15T14:11:38.612Z,29.90
2018-05-15T14:14:12.374Z,28.70
2018-05-15T14:16:45.897Z,28.20
2018-05-15T14:19:19.675Z,29.30
2018-05-15T14:21:53.295Z,28.00
2018-05-15T14:24:26.989Z,28.90
2018-05-15T14:27:00.674Z,27.90
2018-05-15T14:29:34.260Z,27.00
2018-05-15T14:32:07.794Z,27.10
2018-05-15T14:34:41.592Z,27.50
2018-05-15T14:37:15.395Z,26.70
2018-05-15T14:39:48.997Z,26.90
2018-05-15T14:42:35.299Z,26.40
2018-05-15T14:45:15.747Z,27.60
2018-05-15T14:47:49.474Z,27.60
2018-05-15T14:50:23.075Z,26.30
2018-05-15T14:52:56.579Z,26.30
2018-05-15T14:55:30.247Z,27.00
2018-05-15T14:58:04.062Z,27.20
2018-05-15T15:00:37.870Z,27.80
2018-05-15T15:03:11.514Z,28.10
2018-05-15T15:05:45.280Z,28.70
2018-05-15T15:08:19.120Z,29.50
2018-05-15T15:10:52.774Z,29.60
2018-05-15T15:13:26.286Z,28.80
2018-05-15T15:16:00.093Z,28.50
2018-05-15T15:18:34.602Z,27.80
2018-05-15T15:21:08.318Z,27.80
2018-05-15T15:23:42.028Z,27.90
2018-05-15T15:26:15.689Z,27.90
2018-05-15T15:28:49.284Z,28.80
2018-05-15T15:31:22.795Z,28.80
2018-05-15T15:33:56.526Z,28.60
2018-05-15T15:36:30.135Z,29.60
2018-05-15T15:39:04.551Z,29.30
2018-05-15T15:41:38.246Z,29.30
2018-05-15T15:44:13.504Z,29.70
2018-05-15T15:46:47.058Z,29.70
2018-05-15T15:49:20.794Z,29.00
2018-05-15T15:51:55.095Z,29.20
2018-05-15T15:54:28.678Z,29.10
2018-05-15T15:57:02.284Z,28.70
2018-05-15T15:59:36.017Z,28.20
2018-05-15T16:02:09.522Z,28.00
2018-05-15T16:04:43.232Z,29.20
2018-05-15T16:07:16.828Z,29.50
2018-05-15T16:09:51.481Z,30.30
2018-05-15T16:12:24.943Z,30.20
2018-05-15T16:14:58.743Z,30.00
2018-05-15T16:17:32.227Z,29.70
2018-05-15T16:20:06.560Z,30.50
2018-05-15T16:22:41.019Z,29.60
2018-05-15T16:25:14.580Z,29.60
2018-05-15T16:27:48.191Z,29.80
2018-05-15T16:30:21.758Z,29.90
2018-05-15T16:32:55.498Z,30.60
2018-05-15T16:35:30.007Z,31.40
2018-05-15T16:38:03.583Z,31.30
2018-05-15T16:40:37.250Z,31.30
2018-05-15T16:43:10.921Z,33.00
2018-05-15T16:45:44.737Z,33.40
2018-05-15T16:48:18.394Z,33.20
2018-05-15T16:50:51.959Z,32.30
2018-05-15T16:53:25.788Z,33.90
2018-05-15T16:55:59.238Z,33.60
2018-05-15T16:58:33.766Z,34.30
2018-05-15T17:01:07.351Z,34.30
2018-05-15T17:03:41.155Z,33.40
2018-05-15T17:06:15.587Z,34.20
2018-05-15T17:08:49.269Z,34.20
2018-05-15T17:11:22.988Z,34.10
2018-05-15T17:13:56.714Z,34.10
2018-05-15T17:16:30.590Z,34.30
2018-05-15T17:19:04.329Z,34.60
2018-05-15T17:21:38.208Z,35.00
2018-05-15T17:24:12.016Z,35.10
2018-05-15T17:26:46.528Z,35.30
2018-05-15T17:29:20.130Z,35.20
2018-05-15T17:31:54.402Z,34.10
2018-05-15T17:34:28.053Z,34.10
2018-05-15T17:37:01.663Z,34.90
2018-05-15T17:39:35.467Z,34.90
2018-05-15T17:42:09.270Z,35.40
2018-05-15T17:44:42.980Z,35.70
2018-05-15T17:47:16.540Z,35.50
2018-05-15T17:49:50.202Z,35.80
2018-05-15T17:52:23.874Z,35.50
2018-05-15T17:54:57.674Z,35.50
2018-05-15T17:57:31.289Z,36.20
2018-05-15T18:00:05.699Z,37.00
2018-05-15T18:02:39.483Z,37.00
2018-05-15T18:05:13.107Z,37.60
2018-05-15T18:07:46.710Z,37.70
2018-05-15T18:10:20.378Z,37.20
2018-05-15T18:12:54.123Z,37.00
2018-05-15T18:15:27.786Z,37.90
2018-05-15T18:18:02.302Z,38.20
2018-05-15T18:20:36.034Z,38.20
2018-05-15T18:23:09.844Z,38.60
2018-05-15T18:25:43.435Z,39.80
2018-05-15T18:28:17.042Z,39.90
2018-05-15T18:30:50.570Z,39.40
2018-05-15T18:33:24.354Z,39.80
2018-05-15T18:35:58.163Z,39.60
2018-05-15T18:38:31.763Z,39.40
2018-05-15T18:41:05.399Z,40.00
2018-05-15T18:43:39.165Z,39.80
2018-05-15T18:46:12.746Z,39.70
2018-05-15T18:48:46.782Z,40.20
2018-05-15T18:51:20.494Z,39.50
2018-05-15T18:53:54.051Z,38.20
2018-05-15T18:56:27.791Z,37.70
2018-05-15T18:59:01.397Z,37.80
2018-05-15T19:01:35.403Z,39.40
2018-05-15T19:04:09.002Z,40.60
2018-05-15T19:06:42.876Z,41.60
2018-05-15T19:09:16.438Z,42.10
2018-05-15T19:11:50.007Z,42.60
2018-05-15T19:14:23.818Z,42.80
2018-05-15T19:16:58.328Z,43.40
2018-05-15T19:19:32.152Z,43.30
2018-05-15T19:22:05.695Z,43.80
2018-05-15T19:24:39.443Z,44.10
2018-05-15T19:27:13.116Z,44.30
2018-05-15T19:29:46.507Z,44.70
2018-05-15T19:32:20.129Z,45.00
2018-05-15T19:34:56.244Z,45.30
2018-05-15T19:37:30.106Z,45.80
2018-05-15T19:40:09.514Z,45.90
2018-05-15T19:42:43.246Z,46.20
2018-05-15T19:45:16.868Z,46.60
2018-05-15T19:47:50.659Z,46.60
2018-05-15T19:50:24.463Z,47.00
2018-05-15T19:52:57.987Z,46.80
2018-05-15T19:55:31.502Z,47.20
2018-05-15T19:58:06.077Z,47.80
2018-05-15T20:00:39.667Z,47.90
2018-05-15T20:03:13.288Z,48.10
2018-05-15T20:05:46.920Z,48.00
2018-05-15T20:08:20.766Z,48.30
2018-05-15T20:10:54.366Z,48.20
2018-05-15T20:13:27.967Z,48.40
2018-05-15T20:16:01.611Z,48.60
2018-05-15T20:18:35.306Z,48.90
2018-05-15T20:21:09.127Z,49.20
2018-05-15T20:23:43.668Z,49.80
2018-05-15T20:26:18.014Z,49.70
2018-05-15T20:28:52.318Z,49.70
2018-05-15T20:31:26.170Z,49.70
2018-05-15T20:33:59.774Z,49.60
2018-05-15T20:36:34.195Z,50.20
2018-05-15T20:39:07.695Z,50.10
2018-05-15T20:41:41.400Z,50.80
2018-05-15T20:44:14.968Z,52.20
2018-05-15T20:46:48.731Z,52.80
2018-05-15T20:49:22.279Z,54.20
2018-05-15T20:51:55.971Z,53.90
2018-05-15T20:54:30.424Z,54.80
2018-05-15T20:57:04.152Z,54.80
2018-05-15T20:59:37.911Z,54.50
2018-05-15T21:02:12.364Z,54.10
2018-05-15T21:04:46.149Z,54.00
2018-05-15T21:07:19.746Z,54.00
2018-05-15T21:09:53.476Z,53.30
2018-05-15T21:12:27.269Z,53.10
2018-05-15T21:15:01.603Z,54.40
2018-05-15T21:17:35.179Z,54.40
2018-05-15T21:20:08.695Z,54.90
2018-05-15T21:22:43.002Z,55.30
2018-05-15T21:25:16.712Z,55.30
2018-05-15T21:27:50.511Z,54.80
2018-05-15T21:30:24.114Z,54.70
2018-05-15T21:32:58.122Z,55.20
2018-05-15T21:35:32.411Z,54.40
2018-05-15T21:38:06.154Z,54.40
2018-05-15T21:40:39.742Z,54.30
2018-05-15T21:43:13.550Z,54.50
2018-05-15T21:45:48.650Z,55.20
2018-05-15T21:48:23.810Z,54.50
2018-05-15T21:50:57.602Z,54.50
2018-05-15T21:53:32.053Z,55.00
2018-05-15T21:56:06.471Z,55.00
2018-05-15T21:58:40.162Z,55.00
2018-05-15T22:01:13.666Z,55.30
2018-05-15T22:03:47.969Z,58.00
2018-05-15T22:06:21.651Z,57.50
2018-05-15T22:08:55.262Z,57.90
2018-05-15T22:11:28.503Z,58.60
2018-05-15T22:14:14.066Z,59.90
2018-05-15T22:16:59.522Z,60.40
2018-05-15T22:19:44.923Z,60.80
2018-05-15T22:22:17.994Z,61.20
2018-05-15T22:24:51.654Z,62.90
2018-05-15T22:27:25.226Z,63.40
2018-05-15T22:29:58.927Z,64.00
2018-05-15T22:32:32.538Z,64.20
2018-05-15T22:35:06.188Z,65.00
2018-05-15T22:37:39.734Z,66.50
2018-05-15T22:40:13.387Z,66.90
2018-05-15T22:42:47.219Z,66.10
2018-05-15T22:45:21.755Z,66.90
2018-05-15T22:47:55.331Z,66.80
2018-05-15T22:50:29.159Z,68.60
2018-05-15T22:53:03.582Z,67.40
2018-05-15T22:55:38.134Z,67.40
2018-05-15T22:58:11.823Z,68.80
2018-05-15T23:00:45.682Z,69.50
2018-05-15T23:03:19.419Z,70.60
2018-05-15T23:05:53.855Z,70.00
2018-05-15T23:08:27.614Z,70.00
2018-05-15T23:11:01.240Z,69.90
2018-05-15T23:13:34.827Z,69.40
2018-05-15T23:16:08.310Z,71.80
2018-05-15T23:18:42.046Z,70.10
2018-05-15T23:21:15.714Z,69.20
2018-05-15T23:23:49.454Z,70.30
2018-05-15T23:26:23.867Z,70.90
2018-05-15T23:28:57.390Z,70.90
2018-05-15T23:31:31.081Z,69.10
2018-05-15T23:34:04.891Z,71.20
2018-05-15T23:36:38.483Z,73.00
2018-05-15T23:39:12.301Z,72.00
2018-05-15T23:41:46.569Z,72.30
2018-05-15T23:44:20.507Z,72.30
2018-05-15T23:46:54.063Z,71.30
2018-05-15T23:49:27.714Z,72.50
2018-05-15T23:52:01.316Z,73.30
2018-05-15T23:54:35.970Z,73.50
2018-05-15T23:57:09.606Z,73.40
2018-05-15T23:59:43.345Z,73.30
